sensor_id;sensor_type;location;lat;lon;timestamp;pressure;altitude;pressure_sealevel;temperature;humidity
44453;BME280;30155;52.164;21.236;2022-10-16T00:50:33;100645.52;;;13.67;76.20
44453;BME280;30155;52.164;21.236;2022-10-16T00:55:23;100655.95;;;13.64;76.49
44453;BME280;30155;52.164;21.236;2022-10-16T01:00:18;100660.76;;;13.63;76.30
44453;BME280;30155;52.164;21.236;2022-10-16T01:05:11;100667.71;;;13.64;76.23
44453;BME280;30155;52.164;21.236;2022-10-16T01:21:08;100689.94;;;13.67;76.26
44453;BME280;30155;52.164;21.236;2022-10-16T01:31:09;100689.93;;;13.61;76.60
44453;BME280;30155;52.164;21.236;2022-10-16T01:36:14;100682.48;;;13.53;76.90
44453;BME280;30155;52.164;21.236;2022-10-16T01:41:15;100686.39;;;13.47;77.14
44453;BME280;30155;52.164;21.236;2022-10-16T01:46:17;100695.48;;;13.42;77.45
44453;BME280;30155;52.164;21.236;2022-10-16T01:51:12;100695.89;;;13.37;77.78
44453;BME280;30155;52.164;21.236;2022-10-16T01:56:07;100701.97;;;13.31;78.00
44453;BME280;30155;52.164;21.236;2022-10-16T02:01:05;100699.75;;;13.29;78.54
44453;BME280;30155;52.164;21.236;2022-10-16T02:05:58;100698.84;;;13.24;78.76
44453;BME280;30155;52.164;21.236;2022-10-16T02:10:51;100691.42;;;13.21;79.03
44453;BME280;30155;52.164;21.236;2022-10-16T02:15:49;100686.62;;;13.17;79.16
44453;BME280;30155;52.164;21.236;2022-10-16T02:20:53;100694.42;;;13.14;79.28
44453;BME280;30155;52.164;21.236;2022-10-16T02:25:50;100688.31;;;13.10;79.30
44453;BME280;30155;52.164;21.236;2022-10-16T02:30:52;100693.09;;;13.08;79.59
44453;BME280;30155;52.164;21.236;2022-10-16T02:35:53;100695.23;;;13.05;79.69
44453;BME280;30155;52.164;21.236;2022-10-16T02:40:48;100690.02;;;13.05;79.84
44453;BME280;30155;52.164;21.236;2022-10-16T02:45:39;100690.88;;;13.03;79.97
44453;BME280;30155;52.164;21.236;2022-10-16T02:50:31;100696.09;;;13.01;80.13
44453;BME280;30155;52.164;21.236;2022-10-16T02:55:24;100696.95;;;12.99;80.19
44453;BME280;30155;52.164;21.236;2022-10-16T03:00:20;100693.02;;;12.95;80.29
44453;BME280;30155;52.164;21.236;2022-10-16T03:05:14;100687.77;;;12.92;80.34
44453;BME280;30155;52.164;21.236;2022-10-16T03:10:06;100695.16;;;12.90;80.20
44453;BME280;30155;52.164;21.236;2022-10-16T03:14:58;100699.47;;;12.89;80.04
44453;BME280;30155;52.164;21.236;2022-10-16T03:19:49;100706.88;;;12.88;80.07
44453;BME280;30155;52.164;21.236;2022-10-16T03:24:41;100713.83;;;12.89;79.85
44453;BME280;30155;52.164;21.236;2022-10-16T03:29:34;100719.08;;;12.92;79.92
44453;BME280;30155;52.164;21.236;2022-10-16T03:34:27;100720.41;;;12.95;79.90
44453;BME280;30155;52.164;21.236;2022-10-16T03:39:19;100724.77;;;12.95;79.87
44453;BME280;30155;52.164;21.236;2022-10-16T03:44:10;100730.39;;;12.94;79.87
44453;BME280;30155;52.164;21.236;2022-10-16T03:49:02;100736.07;;;12.95;79.74
44453;BME280;30155;52.164;21.236;2022-10-16T03:53:55;100738.69;;;12.95;79.69
44453;BME280;30155;52.164;21.236;2022-10-16T03:58:47;100740.41;;;12.96;79.62
44453;BME280;30155;52.164;21.236;2022-10-16T04:03:38;100740.85;;;12.96;79.72
44453;BME280;30155;52.164;21.236;2022-10-16T04:08:31;100735.19;;;12.93;79.58
44453;BME280;30155;52.164;21.236;2022-10-16T04:13:26;100736.92;;;12.91;79.73
44453;BME280;30155;52.164;21.236;2022-10-16T04:18:21;100740.38;;;12.90;79.62
44453;BME280;30155;52.164;21.236;2022-10-16T04:23:12;100741.69;;;12.90;79.69
44453;BME280;30155;52.164;21.236;2022-10-16T04:28:04;100737.34;;;12.92;79.57
44453;BME280;30155;52.164;21.236;2022-10-16T04:32:56;100733.87;;;12.92;79.41
44453;BME280;30155;52.164;21.236;2022-10-16T04:37:49;100738.65;;;12.92;79.50
44453;BME280;30155;52.164;21.236;2022-10-16T04:42:41;100745.58;;;12.89;79.31
44453;BME280;30155;52.164;21.236;2022-10-16T04:47:34;100759.45;;;12.83;79.56
44453;BME280;30155;52.164;21.236;2022-10-16T04:52:27;100753.72;;;12.74;79.38
44453;BME280;30155;52.164;21.236;2022-10-16T04:57:18;100751.92;;;12.67;79.42
44453;BME280;30155;52.164;21.236;2022-10-16T05:02:09;100754.41;;;12.55;79.42
44453;BME280;30155;52.164;21.236;2022-10-16T05:07:01;100768.69;;;12.47;79.60
44453;BME280;30155;52.164;21.236;2022-10-16T05:11:54;100776.06;;;12.46;79.70
44453;BME280;30155;52.164;21.236;2022-10-16T05:16:47;100771.30;;;12.47;79.74
44453;BME280;30155;52.164;21.236;2022-10-16T05:21:39;100776.50;;;12.46;79.65
44453;BME280;30155;52.164;21.236;2022-10-16T05:26:31;100777.35;;;12.43;79.74
44453;BME280;30155;52.164;21.236;2022-10-16T05:31:24;100785.58;;;12.39;79.73
44453;BME280;30155;52.164;21.236;2022-10-16T05:36:15;100787.79;;;12.46;79.84
44453;BME280;30155;52.164;21.236;2022-10-16T05:41:10;100797.01;;;12.55;79.95
44453;BME280;30155;52.164;21.236;2022-10-16T05:46:04;100801.05;;;12.68;80.04
44453;BME280;30155;52.164;21.236;2022-10-16T05:51:06;100807.73;;;12.83;79.54
44453;BME280;30155;52.164;21.236;2022-10-16T05:56:03;100802.18;;;12.96;79.61
44453;BME280;30155;52.164;21.236;2022-10-16T06:00:58;100802.66;;;13.02;79.42
44453;BME280;30155;52.164;21.236;2022-10-16T06:05:56;100797.02;;;13.01;79.02
44453;BME280;30155;52.164;21.236;2022-10-16T06:11:04;100812.16;;;12.92;79.02
44453;BME280;30155;52.164;21.236;2022-10-16T06:16:03;100821.23;;;12.87;79.20
44453;BME280;30155;52.164;21.236;2022-10-16T06:20:58;100833.36;;;12.82;79.25
44453;BME280;30155;52.164;21.236;2022-10-16T06:26:12;100838.57;;;12.79;79.23
44453;BME280;30155;52.164;21.236;2022-10-16T06:31:08;100833.77;;;12.77;79.16
44453;BME280;30155;52.164;21.236;2022-10-16T06:36:04;100835.97;;;12.79;79.18
44453;BME280;30155;52.164;21.236;2022-10-16T06:41:00;100839.59;;;12.98;78.98
44453;BME280;30155;52.164;21.236;2022-10-16T06:45:54;100845.30;;;13.01;78.90
44453;BME280;30155;52.164;21.236;2022-10-16T06:51:05;100848.37;;;13.05;78.83
44453;BME280;30155;52.164;21.236;2022-10-16T06:56:34;100853.66;;;13.14;78.70
44453;BME280;30155;52.164;21.236;2022-10-16T07:01:08;100854.62;;;13.22;78.46
44453;BME280;30155;52.164;21.236;2022-10-16T07:06:06;100855.59;;;13.32;78.35
44453;BME280;30155;52.164;21.236;2022-10-16T07:11:10;100858.69;;;13.39;78.16
44453;BME280;30155;52.164;21.236;2022-10-16T07:16:20;100864.45;;;13.56;77.80
44453;BME280;30155;52.164;21.236;2022-10-16T07:21:21;100870.02;;;14.06;77.10
44453;BME280;30155;52.164;21.236;2022-10-16T07:31:37;100882.50;;;14.69;76.18
44453;BME280;30155;52.164;21.236;2022-10-16T07:36:39;100886.42;;;14.75;76.09
44453;BME280;30155;52.164;21.236;2022-10-16T07:41:39;100890.80;;;14.76;75.65
44453;BME280;30155;52.164;21.236;2022-10-16T07:46:31;100891.23;;;14.80;75.42
44453;BME280;30155;52.164;21.236;2022-10-16T07:51:25;100879.48;;;14.93;75.52
44453;BME280;30155;52.164;21.236;2022-10-16T07:56:17;100884.32;;;15.30;74.70
44453;BME280;30155;52.164;21.236;2022-10-16T08:01:11;100859.39;;;15.84;73.85
44453;BME280;30155;52.164;21.236;2022-10-16T08:06:14;100846.53;;;16.37;72.97
44453;BME280;30155;52.164;21.236;2022-10-16T08:11:06;100847.92;;;17.02;71.08
44453;BME280;30155;52.164;21.236;2022-10-16T08:15:57;100869.12;;;17.33;70.93
44453;BME280;30155;52.164;21.236;2022-10-16T08:20:57;100875.53;;;17.50;70.55
44453;BME280;30155;52.164;21.236;2022-10-16T08:25:50;100873.35;;;17.51;69.74
44453;BME280;30155;52.164;21.236;2022-10-16T08:30:41;100871.22;;;17.43;70.07
44453;BME280;30155;52.164;21.236;2022-10-16T08:35:33;100884.25;;;17.57;69.42
44453;BME280;30155;52.164;21.236;2022-10-16T08:40:27;100872.17;;;17.83;69.02
44453;BME280;30155;52.164;21.236;2022-10-16T08:51:17;100884.37;;;18.63;67.33
44453;BME280;30155;52.164;21.236;2022-10-16T08:56:22;100881.80;;;18.60;67.06
44453;BME280;30155;52.164;21.236;2022-10-16T09:01:14;100892.90;;;18.49;66.84
44453;BME280;30155;52.164;21.236;2022-10-16T09:16:53;100899.97;;;18.45;67.14
44453;BME280;30155;52.164;21.236;2022-10-16T09:21:50;100904.34;;;18.48;66.95
44453;BME280;30155;52.164;21.236;2022-10-16T09:27:06;100911.11;;;18.67;66.56
44453;BME280;30155;52.164;21.236;2022-10-16T09:37:41;100898.30;;;20.09;65.28
44453;BME280;30155;52.164;21.236;2022-10-16T09:42:40;100884.20;;;20.94;64.38
44453;BME280;30155;52.164;21.236;2022-10-16T09:47:37;100882.19;;;21.22;63.29
44453;BME280;30155;52.164;21.236;2022-10-16T09:53:08;100877.69;;;21.44;61.76
44453;BME280;30155;52.164;21.236;2022-10-16T09:58:15;100882.40;;;22.00;61.41
44453;BME280;30155;52.164;21.236;2022-10-16T10:03:35;100874.81;;;22.19;60.81
44453;BME280;30155;52.164;21.236;2022-10-16T10:14:24;100887.45;;;21.93;60.39
44453;BME280;30155;52.164;21.236;2022-10-16T10:25:22;100888.08;;;21.33;60.85
44453;BME280;30155;52.164;21.236;2022-10-16T10:47:16;100880.30;;;21.47;60.48
44453;BME280;30155;52.164;21.236;2022-10-16T10:52:33;100872.64;;;21.35;60.28
44453;BME280;30155;52.164;21.236;2022-10-16T10:57:58;100860.55;;;21.24;60.13
44453;BME280;30155;52.164;21.236;2022-10-16T11:08:52;100858.80;;;21.07;60.39
44453;BME280;30155;52.164;21.236;2022-10-16T11:14:06;100872.28;;;21.14;60.65
44453;BME280;30155;52.164;21.236;2022-10-16T11:25:23;100861.14;;;21.72;59.77
44453;BME280;30155;52.164;21.236;2022-10-16T11:42:10;100861.39;;;21.62;58.98
44453;BME280;30155;52.164;21.236;2022-10-16T11:48:20;100868.65;;;21.54;59.17
44453;BME280;30155;52.164;21.236;2022-10-16T11:58:39;100870.19;;;21.45;59.13
44453;BME280;30155;52.164;21.236;2022-10-16T12:09:46;100868.24;;;21.33;59.51
44453;BME280;30155;52.164;21.236;2022-10-16T12:25:41;100860.92;;;21.46;58.66
44453;BME280;30155;52.164;21.236;2022-10-16T12:31:07;100864.46;;;21.44;58.39
44453;BME280;30155;52.164;21.236;2022-10-16T12:41:35;100864.52;;;21.24;59.43
44453;BME280;30155;52.164;21.236;2022-10-16T12:51:33;100880.16;;;20.96;59.24
44453;BME280;30155;52.164;21.236;2022-10-16T12:56:27;100872.43;;;20.88;59.25
44453;BME280;30155;52.164;21.236;2022-10-16T13:23:41;100895.41;;;19.99;60.55
44453;BME280;30155;52.164;21.236;2022-10-16T13:29:03;100895.44;;;19.75;61.13
44453;BME280;30155;52.164;21.236;2022-10-16T13:39:23;100915.06;;;19.57;61.66
44453;BME280;30155;52.164;21.236;2022-10-16T13:44:47;100915.14;;;19.51;62.10
44453;BME280;30155;52.164;21.236;2022-10-16T13:54:55;100919.73;;;19.39;62.24
44453;BME280;30155;52.164;21.236;2022-10-16T14:00:33;100924.57;;;19.38;62.46
44453;BME280;30155;52.164;21.236;2022-10-16T14:05:55;100928.64;;;19.32;62.45
44453;BME280;30155;52.164;21.236;2022-10-16T14:11:05;100927.97;;;19.19;62.51
44453;BME280;30155;52.164;21.236;2022-10-16T14:16:27;100917.99;;;19.10;63.03
44453;BME280;30155;52.164;21.236;2022-10-16T14:21:29;100919.83;;;19.04;63.38
44453;BME280;30155;52.164;21.236;2022-10-16T14:26:30;100921.97;;;19.08;63.43
44453;BME280;30155;52.164;21.236;2022-10-16T14:31:38;100920.70;;;19.07;63.57
44453;BME280;30155;52.164;21.236;2022-10-16T14:37:01;100928.20;;;19.02;63.77
44453;BME280;30155;52.164;21.236;2022-10-16T14:41:56;100943.20;;;18.97;64.12
44453;BME280;30155;52.164;21.236;2022-10-16T14:51:46;100946.92;;;18.79;64.56
44453;BME280;30155;52.164;21.236;2022-10-16T14:57:03;100948.27;;;18.78;64.72
44453;BME280;30155;52.164;21.236;2022-10-16T15:07:24;100938.33;;;18.66;65.43
44453;BME280;30155;52.164;21.236;2022-10-16T15:12:18;100950.73;;;18.58;65.95
44453;BME280;30155;52.164;21.236;2022-10-16T15:17:14;100947.78;;;18.48;66.24
44453;BME280;30155;52.164;21.236;2022-10-16T15:22:10;100950.96;;;18.37;66.75
44453;BME280;30155;52.164;21.236;2022-10-16T15:27:06;100951.13;;;18.24;67.05
44453;BME280;30155;52.164;21.236;2022-10-16T15:31:58;100959.57;;;18.12;67.63
44453;BME280;30155;52.164;21.236;2022-10-16T15:36:49;100974.15;;;18.01;67.85
44453;BME280;30155;52.164;21.236;2022-10-16T15:41:43;100972.52;;;17.90;68.49
44453;BME280;30155;52.164;21.236;2022-10-16T15:46:38;100967.73;;;17.79;69.03
44453;BME280;30155;52.164;21.236;2022-10-16T15:51:33;100968.28;;;17.69;69.43
44453;BME280;30155;52.164;21.236;2022-10-16T15:56:29;100974.47;;;17.62;69.87
44453;BME280;30155;52.164;21.236;2022-10-16T16:01:25;100980.21;;;17.56;70.04
44453;BME280;30155;52.164;21.236;2022-10-16T16:06:18;100975.47;;;17.47;70.32
44453;BME280;30155;52.164;21.236;2022-10-16T16:11:17;100980.75;;;17.41;70.51
44453;BME280;30155;52.164;21.236;2022-10-16T16:16:12;100991.33;;;17.35;70.77
44453;BME280;30155;52.164;21.236;2022-10-16T16:21:05;101001.41;;;17.31;71.03
44453;BME280;30155;52.164;21.236;2022-10-16T16:31:26;101017.22;;;17.25;71.47
44453;BME280;30155;52.164;21.236;2022-10-16T16:36:37;101022.94;;;17.20;71.52
44453;BME280;30155;52.164;21.236;2022-10-16T16:41:40;101019.45;;;17.16;71.79
44453;BME280;30155;52.164;21.236;2022-10-16T16:46:48;101025.17;;;17.12;71.95
44453;BME280;30155;52.164;21.236;2022-10-16T16:51:49;101024.75;;;17.10;71.98
44453;BME280;30155;52.164;21.236;2022-10-16T16:56:53;101030.42;;;17.09;72.23
44453;BME280;30155;52.164;21.236;2022-10-16T17:07:05;101050.59;;;17.04;72.64
44453;BME280;30155;52.164;21.236;2022-10-16T17:12:22;101058.05;;;17.00;72.82
44453;BME280;30155;52.164;21.236;2022-10-16T17:17:29;101054.61;;;16.92;73.15
44453;BME280;30155;52.164;21.236;2022-10-16T17:28:14;101070.81;;;16.68;73.37
44453;BME280;30155;52.164;21.236;2022-10-16T17:33:29;101074.36;;;16.58;73.62
44453;BME280;30155;52.164;21.236;2022-10-16T17:49:08;101087.96;;;16.19;74.32
44453;BME280;30155;52.164;21.236;2022-10-16T17:54:33;101100.63;;;16.09;74.58
44453;BME280;30155;52.164;21.236;2022-10-16T17:59:56;101112.42;;;15.96;74.59
44453;BME280;30155;52.164;21.236;2022-10-16T18:04:51;101115.02;;;15.84;74.78
44453;BME280;30155;52.164;21.236;2022-10-16T18:10:07;101116.34;;;15.78;75.08
44453;BME280;30155;52.164;21.236;2022-10-16T18:15:02;101126.77;;;15.73;75.20
44453;BME280;30155;52.164;21.236;2022-10-16T18:20:16;101131.14;;;15.73;75.46
44453;BME280;30155;52.164;21.236;2022-10-16T18:30:34;101137.24;;;15.72;75.85
44453;BME280;30155;52.164;21.236;2022-10-16T18:35:38;101143.80;;;15.72;75.93
44453;BME280;30155;52.164;21.236;2022-10-16T18:40:51;101142.92;;;15.70;75.99
44453;BME280;30155;52.164;21.236;2022-10-16T18:46:39;101145.53;;;15.67;76.14
44453;BME280;30155;52.164;21.236;2022-10-16T18:51:33;101150.34;;;15.64;76.35
44453;BME280;30155;52.164;21.236;2022-10-16T18:56:51;101152.95;;;15.62;76.48
44453;BME280;30155;52.164;21.236;2022-10-16T19:02:05;101156.45;;;15.60;76.61
44453;BME280;30155;52.164;21.236;2022-10-16T19:07:02;101161.70;;;15.61;76.71
44453;BME280;30155;52.164;21.236;2022-10-16T19:17:29;101161.24;;;15.54;76.82
44453;BME280;30155;52.164;21.236;2022-10-16T19:28:15;101175.14;;;15.35;77.03
44453;BME280;30155;52.164;21.236;2022-10-16T19:33:30;101183.76;;;15.18;77.16
44453;BME280;30155;52.164;21.236;2022-10-16T19:38:58;101194.17;;;15.04;76.86
44453;BME280;30155;52.164;21.236;2022-10-16T19:44:20;101201.08;;;14.92;77.18
44453;BME280;30155;52.164;21.236;2022-10-16T19:49:20;101209.71;;;14.80;77.44
44453;BME280;30155;52.164;21.236;2022-10-16T19:59:40;101220.03;;;14.60;77.82
44453;BME280;30155;52.164;21.236;2022-10-16T20:04:55;101219.00;;;14.45;77.52
44453;BME280;30155;52.164;21.236;2022-10-16T20:09:54;101221.08;;;14.35;77.58
44453;BME280;30155;52.164;21.236;2022-10-16T20:15:14;101225.74;;;14.23;77.89
44453;BME280;30155;52.164;21.236;2022-10-16T20:20:27;101237.44;;;14.16;77.97
44453;BME280;30155;52.164;21.236;2022-10-16T20:25:58;101241.27;;;14.06;77.97
44453;BME280;30155;52.164;21.236;2022-10-16T20:41:38;101260.04;;;13.73;78.38
44453;BME280;30155;52.164;21.236;2022-10-16T20:46:52;101269.51;;;13.63;77.96
44453;BME280;30155;52.164;21.236;2022-10-16T20:52:06;101281.53;;;13.52;78.36
44453;BME280;30155;52.164;21.236;2022-10-16T21:02:06;101299.20;;;13.39;78.62
44453;BME280;30155;52.164;21.236;2022-10-16T21:07:13;101302.92;;;13.28;78.44
44453;BME280;30155;52.164;21.236;2022-10-16T21:12:31;101305.08;;;13.25;78.75
44453;BME280;30155;52.164;21.236;2022-10-16T21:17:42;101308.94;;;13.22;78.68
44453;BME280;30155;52.164;21.236;2022-10-16T21:22:39;101300.09;;;13.14;78.72
44453;BME280;30155;52.164;21.236;2022-10-16T21:27:44;101299.08;;;13.04;78.87
44453;BME280;30155;52.164;21.236;2022-10-16T21:33:00;101303.75;;;12.97;78.79
44453;BME280;30155;52.164;21.236;2022-10-16T21:37:54;101305.41;;;12.92;78.95
44453;BME280;30155;52.164;21.236;2022-10-16T21:42:57;101317.46;;;12.85;79.29
44453;BME280;30155;52.164;21.236;2022-10-16T21:48:05;101327.38;;;12.80;79.17
44453;BME280;30155;52.164;21.236;2022-10-16T21:53:17;101321.69;;;12.77;79.40
44453;BME280;30155;52.164;21.236;2022-10-16T21:58:39;101324.17;;;12.71;79.48
44453;BME280;30155;52.164;21.236;2022-10-16T22:03:36;101327.58;;;12.67;79.46
44453;BME280;30155;52.164;21.236;2022-10-16T22:08:57;101325.31;;;12.62;79.77
44453;BME280;30155;52.164;21.236;2022-10-16T22:14:19;101328.26;;;12.56;79.80
44453;BME280;30155;52.164;21.236;2022-10-16T22:19:43;101337.72;;;12.51;79.98
44453;BME280;30155;52.164;21.236;2022-10-16T22:24:41;101348.89;;;12.44;79.72
44453;BME280;30155;52.164;21.236;2022-10-16T22:35:04;101357.84;;;12.35;80.16
44453;BME280;30155;52.164;21.236;2022-10-16T22:40:12;101360.81;;;12.31;80.11
44453;BME280;30155;52.164;21.236;2022-10-16T22:45:24;101352.84;;;12.24;80.23
44453;BME280;30155;52.164;21.236;2022-10-16T22:56:07;101372.14;;;12.11;80.00
44453;BME280;30155;52.164;21.236;2022-10-16T23:06:46;101381.43;;;12.00;80.15
44453;BME280;30155;52.164;21.236;2022-10-16T23:12:04;101378.27;;;11.94;80.54
44453;BME280;30155;52.164;21.236;2022-10-16T23:23:12;101381.52;;;11.86;80.24
44453;BME280;30155;52.164;21.236;2022-10-16T23:40:26;101393.70;;;11.66;80.38
44453;BME280;30155;52.164;21.236;2022-10-16T23:51:04;101407.69;;;11.52;80.49
44453;BME280;30155;52.164;21.236;2022-10-16T23:56:29;101412.47;;;11.53;80.83
